sensor_id;sensor_type;location;lat;lon;timestamp;P1;durP1;ratioP1;P2;durP2;ratioP2
7843;SDS011;3967;48.702;9.326;2023-05-08T00:02:24;9.23;;;8.33;;
7843;SDS011;3967;48.702;9.326;2023-05-08T00:04:51;9.07;;;8.17;;
7843;SDS011;3967;48.702;9.326;2023-05-08T00:07:17;12.20;;;9.73;;
7843;SDS011;3967;48.702;9.326;2023-05-08T00:09:44;10.30;;;9.33;;
7843;SDS011;3967;48.702;9.326;2023-05-08T00:12:11;10.47;;;9.40;;
7843;SDS011;3967;48.702;9.326;2023-05-08T00:14:37;10.27;;;9.27;;
7843;SDS011;3967;48.702;9.326;2023-05-08T00:17:04;9.80;;;8.87;;
7843;SDS011;3967;48.702;9.326;2023-05-08T00:19:31;7.87;;;7.17;;
7843;SDS011;3967;48.702;9.326;2023-05-08T00:21:57;10.97;;;9.30;;
7843;SDS011;3967;48.702;9.326;2023-05-08T00:24:24;7.90;;;7.10;;
7843;SDS011;3967;48.702;9.326;2023-05-08T00:26:51;7.97;;;7.27;;
7843;SDS011;3967;48.702;9.326;2023-05-08T00:29:18;8.10;;;7.30;;
7843;SDS011;3967;48.702;9.326;2023-05-08T00:31:44;8.03;;;7.23;;
7843;SDS011;3967;48.702;9.326;2023-05-08T00:34:11;6.97;;;6.30;;
7843;SDS011;3967;48.702;9.326;2023-05-08T00:36:38;8.57;;;7.30;;
7843;SDS011;3967;48.702;9.326;2023-05-08T00:39:04;7.90;;;7.10;;
7843;SDS011;3967;48.702;9.326;2023-05-08T00:41:31;7.67;;;6.97;;
7843;SDS011;3967;48.702;9.326;2023-05-08T00:43:58;6.67;;;6.03;;
7843;SDS011;3967;48.702;9.326;2023-05-08T00:46:25;7.07;;;6.47;;
7843;SDS011;3967;48.702;9.326;2023-05-08T00:48:51;8.37;;;7.60;;
7843;SDS011;3967;48.702;9.326;2023-05-08T00:51:18;9.20;;;8.30;;
7843;SDS011;3967;48.702;9.326;2023-05-08T00:53:45;7.30;;;6.63;;
7843;SDS011;3967;48.702;9.326;2023-05-08T00:56:13;6.27;;;5.67;;
7843;SDS011;3967;48.702;9.326;2023-05-08T00:58:42;7.23;;;6.53;;
7843;SDS011;3967;48.702;9.326;2023-05-08T01:01:09;7.80;;;6.70;;
7843;SDS011;3967;48.702;9.326;2023-05-08T01:03:37;7.50;;;6.87;;
7843;SDS011;3967;48.702;9.326;2023-05-08T01:06:04;9.37;;;8.57;;
7843;SDS011;3967;48.702;9.326;2023-05-08T01:08:32;9.83;;;7.30;;
7843;SDS011;3967;48.702;9.326;2023-05-08T01:13:49;7.53;;;6.83;;
7843;SDS011;3967;48.702;9.326;2023-05-08T01:28:06;5.57;;;5.17;;
7843;SDS011;3967;48.702;9.326;2023-05-08T01:35:59;6.20;;;5.70;;
7843;SDS011;3967;48.702;9.326;2023-05-08T01:38:39;7.83;;;7.10;;
7843;SDS011;3967;48.702;9.326;2023-05-08T01:41:15;8.10;;;7.17;;
7843;SDS011;3967;48.702;9.326;2023-05-08T01:44:20;7.23;;;6.67;;
7843;SDS011;3967;48.702;9.326;2023-05-08T01:46:47;8.97;;;7.67;;
7843;SDS011;3967;48.702;9.326;2023-05-08T01:52:04;7.23;;;6.53;;
7843;SDS011;3967;48.702;9.326;2023-05-08T01:54:38;8.43;;;6.97;;
7843;SDS011;3967;48.702;9.326;2023-05-08T01:57:09;7.47;;;6.77;;
7843;SDS011;3967;48.702;9.326;2023-05-08T01:59:38;7.77;;;7.07;;
7843;SDS011;3967;48.702;9.326;2023-05-08T02:02:08;7.00;;;6.40;;
7843;SDS011;3967;48.702;9.326;2023-05-08T02:04:36;9.73;;;8.30;;
7843;SDS011;3967;48.702;9.326;2023-05-08T02:07:06;11.30;;;8.80;;
7843;SDS011;3967;48.702;9.326;2023-05-08T02:09:33;7.57;;;6.87;;
7843;SDS011;3967;48.702;9.326;2023-05-08T02:12:00;10.67;;;9.67;;
7843;SDS011;3967;48.702;9.326;2023-05-08T02:14:29;8.33;;;7.60;;
7843;SDS011;3967;48.702;9.326;2023-05-08T02:16:57;8.70;;;7.90;;
7843;SDS011;3967;48.702;9.326;2023-05-08T02:19:27;8.17;;;7.37;;
7843;SDS011;3967;48.702;9.326;2023-05-08T02:21:55;9.33;;;8.50;;
7843;SDS011;3967;48.702;9.326;2023-05-08T02:24:23;11.57;;;10.37;;
7843;SDS011;3967;48.702;9.326;2023-05-08T02:26:51;11.10;;;10.10;;
7843;SDS011;3967;48.702;9.326;2023-05-08T02:29:20;10.90;;;10.00;;
7843;SDS011;3967;48.702;9.326;2023-05-08T02:31:48;10.23;;;9.23;;
7843;SDS011;3967;48.702;9.326;2023-05-08T02:34:17;11.00;;;9.33;;
7843;SDS011;3967;48.702;9.326;2023-05-08T02:36:46;9.33;;;8.40;;
7843;SDS011;3967;48.702;9.326;2023-05-08T02:39:14;9.40;;;8.40;;
7843;SDS011;3967;48.702;9.326;2023-05-08T02:41:44;8.13;;;7.43;;
7843;SDS011;3967;48.702;9.326;2023-05-08T02:44:11;9.27;;;8.37;;
7843;SDS011;3967;48.702;9.326;2023-05-08T02:46:40;8.27;;;7.50;;
7843;SDS011;3967;48.702;9.326;2023-05-08T02:49:19;7.57;;;6.87;;
7843;SDS011;3967;48.702;9.326;2023-05-08T02:51:53;7.30;;;6.67;;
7843;SDS011;3967;48.702;9.326;2023-05-08T02:54:38;7.93;;;7.27;;
7843;SDS011;3967;48.702;9.326;2023-05-08T03:02:59;10.03;;;9.00;;
7843;SDS011;3967;48.702;9.326;2023-05-08T03:05:36;8.73;;;8.00;;
7843;SDS011;3967;48.702;9.326;2023-05-08T03:08:13;10.43;;;9.30;;
7843;SDS011;3967;48.702;9.326;2023-05-08T03:10:44;9.17;;;8.37;;
7843;SDS011;3967;48.702;9.326;2023-05-08T03:13:14;8.10;;;7.30;;
7843;SDS011;3967;48.702;9.326;2023-05-08T03:15:44;8.53;;;7.83;;
7843;SDS011;3967;48.702;9.326;2023-05-08T03:18:18;9.77;;;8.80;;
7843;SDS011;3967;48.702;9.326;2023-05-08T03:20:48;8.60;;;7.83;;
7843;SDS011;3967;48.702;9.326;2023-05-08T03:23:20;9.10;;;8.30;;
7843;SDS011;3967;48.702;9.326;2023-05-08T03:25:48;8.67;;;7.87;;
7843;SDS011;3967;48.702;9.326;2023-05-08T03:28:17;8.33;;;7.53;;
7843;SDS011;3967;48.702;9.326;2023-05-08T03:30:44;8.13;;;7.53;;
7843;SDS011;3967;48.702;9.326;2023-05-08T03:33:12;8.50;;;7.80;;
7843;SDS011;3967;48.702;9.326;2023-05-08T03:35:39;7.50;;;6.90;;
7843;SDS011;3967;48.702;9.326;2023-05-08T03:38:07;8.43;;;7.67;;
7843;SDS011;3967;48.702;9.326;2023-05-08T03:40:36;7.87;;;7.17;;
7843;SDS011;3967;48.702;9.326;2023-05-08T03:43:11;7.80;;;7.20;;
7843;SDS011;3967;48.702;9.326;2023-05-08T03:45:38;9.03;;;8.23;;
7843;SDS011;3967;48.702;9.326;2023-05-08T03:48:06;8.50;;;7.63;;
7843;SDS011;3967;48.702;9.326;2023-05-08T03:50:35;9.13;;;8.23;;
7843;SDS011;3967;48.702;9.326;2023-05-08T03:53:03;10.10;;;9.10;;
7843;SDS011;3967;48.702;9.326;2023-05-08T03:55:30;9.70;;;8.70;;
7843;SDS011;3967;48.702;9.326;2023-05-08T04:00:58;9.63;;;8.83;;
7843;SDS011;3967;48.702;9.326;2023-05-08T04:03:40;9.63;;;8.70;;
7843;SDS011;3967;48.702;9.326;2023-05-08T04:06:10;10.80;;;9.80;;
7843;SDS011;3967;48.702;9.326;2023-05-08T04:08:48;11.00;;;9.83;;
7843;SDS011;3967;48.702;9.326;2023-05-08T04:11:40;10.43;;;9.43;;
7843;SDS011;3967;48.702;9.326;2023-05-08T04:14:09;10.43;;;9.27;;
7843;SDS011;3967;48.702;9.326;2023-05-08T04:16:44;9.57;;;8.77;;
7843;SDS011;3967;48.702;9.326;2023-05-08T04:19:17;10.90;;;9.20;;
7843;SDS011;3967;48.702;9.326;2023-05-08T04:21:49;9.13;;;8.33;;
7843;SDS011;3967;48.702;9.326;2023-05-08T04:24:16;9.90;;;8.90;;
7843;SDS011;3967;48.702;9.326;2023-05-08T04:26:45;8.17;;;7.47;;
7843;SDS011;3967;48.702;9.326;2023-05-08T04:29:12;8.97;;;8.20;;
7843;SDS011;3967;48.702;9.326;2023-05-08T04:31:39;8.13;;;7.43;;
7843;SDS011;3967;48.702;9.326;2023-05-08T04:34:07;8.20;;;7.50;;
7843;SDS011;3967;48.702;9.326;2023-05-08T04:36:34;10.27;;;9.37;;
7843;SDS011;3967;48.702;9.326;2023-05-08T04:39:01;10.03;;;9.03;;
7843;SDS011;3967;48.702;9.326;2023-05-08T04:41:28;12.93;;;9.30;;
7843;SDS011;3967;48.702;9.326;2023-05-08T04:43:55;11.40;;;10.30;;
7843;SDS011;3967;48.702;9.326;2023-05-08T04:46:22;11.73;;;10.73;;
7843;SDS011;3967;48.702;9.326;2023-05-08T04:48:52;11.80;;;10.60;;
7843;SDS011;3967;48.702;9.326;2023-05-08T04:51:19;14.13;;;10.63;;
7843;SDS011;3967;48.702;9.326;2023-05-08T04:53:46;10.60;;;9.60;;
7843;SDS011;3967;48.702;9.326;2023-05-08T04:56:13;12.77;;;11.47;;
7843;SDS011;3967;48.702;9.326;2023-05-08T04:58:39;10.43;;;9.47;;
7843;SDS011;3967;48.702;9.326;2023-05-08T05:01:06;10.97;;;9.97;;
7843;SDS011;3967;48.702;9.326;2023-05-08T05:03:33;12.83;;;11.53;;
7843;SDS011;3967;48.702;9.326;2023-05-08T05:06:00;14.00;;;10.30;;
7843;SDS011;3967;48.702;9.326;2023-05-08T05:08:27;11.00;;;9.40;;
7843;SDS011;3967;48.702;9.326;2023-05-08T05:10:53;11.87;;;9.50;;
7843;SDS011;3967;48.702;9.326;2023-05-08T05:13:20;12.00;;;10.47;;
7843;SDS011;3967;48.702;9.326;2023-05-08T05:15:47;12.83;;;11.60;;
7843;SDS011;3967;48.702;9.326;2023-05-08T05:18:16;12.63;;;11.17;;
7843;SDS011;3967;48.702;9.326;2023-05-08T05:20:43;12.77;;;11.47;;
7843;SDS011;3967;48.702;9.326;2023-05-08T05:23:11;14.03;;;11.73;;
7843;SDS011;3967;48.702;9.326;2023-05-08T05:25:38;12.33;;;11.20;;
7843;SDS011;3967;48.702;9.326;2023-05-08T05:28:04;11.93;;;10.70;;
7843;SDS011;3967;48.702;9.326;2023-05-08T05:30:31;10.33;;;9.23;;
7843;SDS011;3967;48.702;9.326;2023-05-08T05:32:58;12.07;;;10.50;;
7843;SDS011;3967;48.702;9.326;2023-05-08T05:35:25;10.63;;;9.67;;
7843;SDS011;3967;48.702;9.326;2023-05-08T05:37:51;10.17;;;9.03;;
7843;SDS011;3967;48.702;9.326;2023-05-08T05:40:18;8.73;;;7.83;;
7843;SDS011;3967;48.702;9.326;2023-05-08T05:42:48;8.50;;;7.70;;
7843;SDS011;3967;48.702;9.326;2023-05-08T05:45:16;9.10;;;8.27;;
7843;SDS011;3967;48.702;9.326;2023-05-08T05:47:44;8.60;;;7.90;;
7843;SDS011;3967;48.702;9.326;2023-05-08T05:50:16;8.33;;;7.53;;
7843;SDS011;3967;48.702;9.326;2023-05-08T05:52:46;8.93;;;8.10;;
7843;SDS011;3967;48.702;9.326;2023-05-08T05:55:15;7.83;;;7.17;;
7843;SDS011;3967;48.702;9.326;2023-05-08T05:57:42;10.17;;;9.07;;
7843;SDS011;3967;48.702;9.326;2023-05-08T06:00:09;9.00;;;7.83;;
7843;SDS011;3967;48.702;9.326;2023-05-08T06:02:36;10.27;;;9.17;;
7843;SDS011;3967;48.702;9.326;2023-05-08T06:05:03;8.30;;;7.70;;
7843;SDS011;3967;48.702;9.326;2023-05-08T06:07:30;9.97;;;9.10;;
7843;SDS011;3967;48.702;9.326;2023-05-08T06:09:57;9.97;;;9.07;;
7843;SDS011;3967;48.702;9.326;2023-05-08T06:12:23;10.97;;;9.90;;
7843;SDS011;3967;48.702;9.326;2023-05-08T06:14:51;11.63;;;9.43;;
7843;SDS011;3967;48.702;9.326;2023-05-08T06:17:18;11.70;;;10.63;;
7843;SDS011;3967;48.702;9.326;2023-05-08T06:19:44;10.37;;;9.30;;
7843;SDS011;3967;48.702;9.326;2023-05-08T06:22:15;11.33;;;10.30;;
7843;SDS011;3967;48.702;9.326;2023-05-08T06:24:43;10.80;;;9.37;;
7843;SDS011;3967;48.702;9.326;2023-05-08T06:27:10;12.53;;;9.40;;
7843;SDS011;3967;48.702;9.326;2023-05-08T06:29:37;9.80;;;8.90;;
7843;SDS011;3967;48.702;9.326;2023-05-08T06:32:04;10.93;;;9.67;;
7843;SDS011;3967;48.702;9.326;2023-05-08T06:34:31;11.13;;;10.03;;
7843;SDS011;3967;48.702;9.326;2023-05-08T06:36:57;11.07;;;9.97;;
7843;SDS011;3967;48.702;9.326;2023-05-08T06:39:24;11.50;;;10.30;;
7843;SDS011;3967;48.702;9.326;2023-05-08T06:41:51;11.60;;;10.37;;
7843;SDS011;3967;48.702;9.326;2023-05-08T06:44:17;10.83;;;9.77;;
7843;SDS011;3967;48.702;9.326;2023-05-08T06:46:44;13.10;;;10.70;;
7843;SDS011;3967;48.702;9.326;2023-05-08T06:49:11;11.23;;;10.13;;
7843;SDS011;3967;48.702;9.326;2023-05-08T06:51:38;9.73;;;8.73;;
7843;SDS011;3967;48.702;9.326;2023-05-08T06:54:04;9.40;;;8.57;;
7843;SDS011;3967;48.702;9.326;2023-05-08T06:56:33;9.63;;;8.43;;
7843;SDS011;3967;48.702;9.326;2023-05-08T06:59:00;8.20;;;7.40;;
7843;SDS011;3967;48.702;9.326;2023-05-08T07:01:34;9.03;;;8.17;;
7843;SDS011;3967;48.702;9.326;2023-05-08T07:04:04;9.97;;;9.07;;
7843;SDS011;3967;48.702;9.326;2023-05-08T07:06:31;8.47;;;7.67;;
7843;SDS011;3967;48.702;9.326;2023-05-08T07:08:58;10.57;;;8.70;;
7843;SDS011;3967;48.702;9.326;2023-05-08T07:11:24;7.33;;;6.63;;
7843;SDS011;3967;48.702;9.326;2023-05-08T07:13:51;8.23;;;7.33;;
7843;SDS011;3967;48.702;9.326;2023-05-08T07:16:18;9.20;;;8.00;;
7843;SDS011;3967;48.702;9.326;2023-05-08T07:18:46;7.30;;;6.63;;
7843;SDS011;3967;48.702;9.326;2023-05-08T07:21:12;6.93;;;6.43;;
7843;SDS011;3967;48.702;9.326;2023-05-08T07:23:41;6.47;;;5.87;;
7843;SDS011;3967;48.702;9.326;2023-05-08T07:26:07;6.20;;;5.70;;
7843;SDS011;3967;48.702;9.326;2023-05-08T07:28:34;6.83;;;6.33;;
7843;SDS011;3967;48.702;9.326;2023-05-08T07:31:04;6.27;;;5.67;;
7843;SDS011;3967;48.702;9.326;2023-05-08T07:33:32;8.10;;;7.20;;
7843;SDS011;3967;48.702;9.326;2023-05-08T07:35:59;8.10;;;7.40;;
7843;SDS011;3967;48.702;9.326;2023-05-08T07:38:26;7.63;;;6.93;;
7843;SDS011;3967;48.702;9.326;2023-05-08T07:40:53;9.13;;;8.33;;
7843;SDS011;3967;48.702;9.326;2023-05-08T07:43:22;7.97;;;7.27;;
7843;SDS011;3967;48.702;9.326;2023-05-08T07:45:49;9.47;;;8.57;;
7843;SDS011;3967;48.702;9.326;2023-05-08T07:48:17;9.00;;;8.20;;
7843;SDS011;3967;48.702;9.326;2023-05-08T07:50:43;7.57;;;6.80;;
7843;SDS011;3967;48.702;9.326;2023-05-08T07:53:10;8.43;;;7.53;;
7843;SDS011;3967;48.702;9.326;2023-05-08T07:55:37;8.37;;;7.60;;
7843;SDS011;3967;48.702;9.326;2023-05-08T07:58:04;8.90;;;7.57;;
7843;SDS011;3967;48.702;9.326;2023-05-08T08:00:31;7.73;;;7.13;;
7843;SDS011;3967;48.702;9.326;2023-05-08T08:02:58;8.10;;;7.10;;
7843;SDS011;3967;48.702;9.326;2023-05-08T08:05:25;9.53;;;8.57;;
7843;SDS011;3967;48.702;9.326;2023-05-08T08:07:52;8.50;;;7.70;;
7843;SDS011;3967;48.702;9.326;2023-05-08T08:10:19;9.97;;;8.23;;
7843;SDS011;3967;48.702;9.326;2023-05-08T08:12:46;9.40;;;8.20;;
7843;SDS011;3967;48.702;9.326;2023-05-08T08:15:13;9.60;;;8.33;;
7843;SDS011;3967;48.702;9.326;2023-05-08T08:17:40;8.80;;;7.40;;
7843;SDS011;3967;48.702;9.326;2023-05-08T08:20:07;9.60;;;8.60;;
7843;SDS011;3967;48.702;9.326;2023-05-08T08:22:34;11.07;;;9.97;;
7843;SDS011;3967;48.702;9.326;2023-05-08T08:25:03;12.13;;;10.07;;
7843;SDS011;3967;48.702;9.326;2023-05-08T08:27:32;10.73;;;9.63;;
7843;SDS011;3967;48.702;9.326;2023-05-08T08:29:59;12.07;;;10.87;;
7843;SDS011;3967;48.702;9.326;2023-05-08T08:32:42;15.10;;;12.63;;
7843;SDS011;3967;48.702;9.326;2023-05-08T08:35:09;13.80;;;11.17;;
7843;SDS011;3967;48.702;9.326;2023-05-08T08:37:36;14.63;;;12.10;;
7843;SDS011;3967;48.702;9.326;2023-05-08T08:40:03;13.13;;;11.40;;
7843;SDS011;3967;48.702;9.326;2023-05-08T08:42:30;14.63;;;12.80;;
7843;SDS011;3967;48.702;9.326;2023-05-08T08:44:57;14.17;;;10.93;;
7843;SDS011;3967;48.702;9.326;2023-05-08T08:47:26;12.87;;;10.77;;
7843;SDS011;3967;48.702;9.326;2023-05-08T08:49:57;13.17;;;11.83;;
7843;SDS011;3967;48.702;9.326;2023-05-08T08:52:30;14.10;;;12.53;;
7843;SDS011;3967;48.702;9.326;2023-05-08T08:54:58;12.00;;;10.80;;
7843;SDS011;3967;48.702;9.326;2023-05-08T08:57:28;12.20;;;11.10;;
7843;SDS011;3967;48.702;9.326;2023-05-08T08:59:59;11.50;;;10.30;;
7843;SDS011;3967;48.702;9.326;2023-05-08T09:02:30;12.93;;;11.63;;
7843;SDS011;3967;48.702;9.326;2023-05-08T09:04:57;11.13;;;10.03;;
7843;SDS011;3967;48.702;9.326;2023-05-08T09:07:25;12.80;;;11.43;;
7843;SDS011;3967;48.702;9.326;2023-05-08T09:09:52;13.03;;;11.10;;
7843;SDS011;3967;48.702;9.326;2023-05-08T09:12:19;12.10;;;10.80;;
7843;SDS011;3967;48.702;9.326;2023-05-08T09:14:46;12.63;;;10.50;;
7843;SDS011;3967;48.702;9.326;2023-05-08T09:17:13;12.13;;;11.03;;
7843;SDS011;3967;48.702;9.326;2023-05-08T09:19:39;10.67;;;9.57;;
7843;SDS011;3967;48.702;9.326;2023-05-08T09:22:07;10.97;;;9.87;;
7843;SDS011;3967;48.702;9.326;2023-05-08T09:24:54;9.70;;;8.70;;
7843;SDS011;3967;48.702;9.326;2023-05-08T09:27:23;9.63;;;8.73;;
7843;SDS011;3967;48.702;9.326;2023-05-08T09:32:30;9.93;;;8.93;;
7843;SDS011;3967;48.702;9.326;2023-05-08T09:34:58;10.03;;;9.13;;
7843;SDS011;3967;48.702;9.326;2023-05-08T09:37:26;9.67;;;8.77;;
7843;SDS011;3967;48.702;9.326;2023-05-08T09:39:53;9.77;;;7.73;;
7843;SDS011;3967;48.702;9.326;2023-05-08T09:42:20;9.07;;;7.87;;
7843;SDS011;3967;48.702;9.326;2023-05-08T09:44:52;8.67;;;7.40;;
7843;SDS011;3967;48.702;9.326;2023-05-08T09:47:20;9.30;;;8.07;;
7843;SDS011;3967;48.702;9.326;2023-05-08T09:52:28;9.83;;;8.83;;
7843;SDS011;3967;48.702;9.326;2023-05-08T09:54:59;8.80;;;8.00;;
7843;SDS011;3967;48.702;9.326;2023-05-08T09:57:33;8.67;;;7.87;;
7843;SDS011;3967;48.702;9.326;2023-05-08T10:02:37;9.70;;;8.80;;
7843;SDS011;3967;48.702;9.326;2023-05-08T10:05:26;10.07;;;9.07;;
7843;SDS011;3967;48.702;9.326;2023-05-08T10:07:57;11.60;;;10.40;;
7843;SDS011;3967;48.702;9.326;2023-05-08T10:10:28;12.10;;;10.80;;
7843;SDS011;3967;48.702;9.326;2023-05-08T10:12:58;12.97;;;11.43;;
7843;SDS011;3967;48.702;9.326;2023-05-08T10:15:27;12.67;;;11.43;;
7843;SDS011;3967;48.702;9.326;2023-05-08T10:20:30;11.17;;;10.07;;
7843;SDS011;3967;48.702;9.326;2023-05-08T10:22:58;11.90;;;10.70;;
7843;SDS011;3967;48.702;9.326;2023-05-08T10:25:29;11.10;;;10.10;;
7843;SDS011;3967;48.702;9.326;2023-05-08T10:28:18;13.10;;;9.60;;
7843;SDS011;3967;48.702;9.326;2023-05-08T10:30:58;10.63;;;9.53;;
7843;SDS011;3967;48.702;9.326;2023-05-08T10:33:28;12.97;;;11.73;;
7843;SDS011;3967;48.702;9.326;2023-05-08T10:35:57;10.60;;;9.63;;
7843;SDS011;3967;48.702;9.326;2023-05-08T10:38:25;12.93;;;11.67;;
7843;SDS011;3967;48.702;9.326;2023-05-08T10:40:52;13.83;;;11.93;;
7843;SDS011;3967;48.702;9.326;2023-05-08T10:43:23;12.50;;;10.77;;
7843;SDS011;3967;48.702;9.326;2023-05-08T10:45:51;9.80;;;8.90;;
7843;SDS011;3967;48.702;9.326;2023-05-08T10:53:56;9.80;;;8.90;;
7843;SDS011;3967;48.702;9.326;2023-05-08T10:56:30;10.13;;;9.20;;
7843;SDS011;3967;48.702;9.326;2023-05-08T10:58:57;8.93;;;8.13;;
7843;SDS011;3967;48.702;9.326;2023-05-08T11:01:24;11.57;;;9.53;;
7843;SDS011;3967;48.702;9.326;2023-05-08T11:03:52;12.20;;;10.63;;
7843;SDS011;3967;48.702;9.326;2023-05-08T11:09:22;10.90;;;9.90;;
7843;SDS011;3967;48.702;9.326;2023-05-08T11:17:28;11.90;;;10.70;;
7843;SDS011;3967;48.702;9.326;2023-05-08T11:19:56;10.37;;;9.37;;
7843;SDS011;3967;48.702;9.326;2023-05-08T11:22:25;11.30;;;10.20;;
7843;SDS011;3967;48.702;9.326;2023-05-08T11:24:59;9.83;;;8.90;;
7843;SDS011;3967;48.702;9.326;2023-05-08T11:40:55;12.60;;;11.33;;
7843;SDS011;3967;48.702;9.326;2023-05-08T11:43:30;13.73;;;12.40;;
7843;SDS011;3967;48.702;9.326;2023-05-08T11:46:13;12.23;;;10.97;;
7843;SDS011;3967;48.702;9.326;2023-05-08T11:48:44;14.37;;;11.83;;
7843;SDS011;3967;48.702;9.326;2023-05-08T11:51:11;11.70;;;10.60;;
7843;SDS011;3967;48.702;9.326;2023-05-08T11:53:41;12.07;;;10.97;;
7843;SDS011;3967;48.702;9.326;2023-05-08T11:56:09;11.80;;;10.67;;
7843;SDS011;3967;48.702;9.326;2023-05-08T11:58:36;12.73;;;11.53;;
7843;SDS011;3967;48.702;9.326;2023-05-08T12:01:02;11.67;;;10.67;;
7843;SDS011;3967;48.702;9.326;2023-05-08T12:03:29;12.07;;;10.87;;
7843;SDS011;3967;48.702;9.326;2023-05-08T12:05:57;12.60;;;11.50;;
7843;SDS011;3967;48.702;9.326;2023-05-08T12:08:25;12.00;;;10.80;;
7843;SDS011;3967;48.702;9.326;2023-05-08T12:10:52;12.97;;;11.87;;
7843;SDS011;3967;48.702;9.326;2023-05-08T12:13:23;13.30;;;12.00;;
7843;SDS011;3967;48.702;9.326;2023-05-08T12:15:56;12.63;;;11.40;;
7843;SDS011;3967;48.702;9.326;2023-05-08T12:18:24;14.37;;;12.97;;
7843;SDS011;3967;48.702;9.326;2023-05-08T12:20:55;13.63;;;12.17;;
7843;SDS011;3967;48.702;9.326;2023-05-08T12:23:27;13.23;;;11.73;;
7843;SDS011;3967;48.702;9.326;2023-05-08T12:25:57;12.87;;;11.67;;
7843;SDS011;3967;48.702;9.326;2023-05-08T12:28:25;13.67;;;12.27;;
7843;SDS011;3967;48.702;9.326;2023-05-08T12:30:52;12.37;;;11.27;;
7843;SDS011;3967;48.702;9.326;2023-05-08T12:33:19;13.50;;;12.30;;
7843;SDS011;3967;48.702;9.326;2023-05-08T12:35:46;13.37;;;12.13;;
7843;SDS011;3967;48.702;9.326;2023-05-08T12:38:13;13.73;;;12.43;;
7843;SDS011;3967;48.702;9.326;2023-05-08T12:40:41;16.63;;;14.93;;
7843;SDS011;3967;48.702;9.326;2023-05-08T12:43:14;15.00;;;13.50;;
7843;SDS011;3967;48.702;9.326;2023-05-08T12:45:41;16.33;;;14.63;;
7843;SDS011;3967;48.702;9.326;2023-05-08T12:50:40;14.43;;;13.13;;
7843;SDS011;3967;48.702;9.326;2023-05-08T12:53:12;14.83;;;13.33;;
7843;SDS011;3967;48.702;9.326;2023-05-08T12:55:53;15.20;;;13.67;;
7843;SDS011;3967;48.702;9.326;2023-05-08T12:58:24;13.70;;;12.50;;
7843;SDS011;3967;48.702;9.326;2023-05-08T13:03:35;16.10;;;14.50;;
7843;SDS011;3967;48.702;9.326;2023-05-08T13:06:02;15.13;;;13.63;;
7843;SDS011;3967;48.702;9.326;2023-05-08T13:11:04;15.37;;;13.93;;
7843;SDS011;3967;48.702;9.326;2023-05-08T13:13:32;15.23;;;13.70;;
7843;SDS011;3967;48.702;9.326;2023-05-08T13:16:01;13.70;;;12.40;;
7843;SDS011;3967;48.702;9.326;2023-05-08T13:18:29;14.17;;;12.87;;
7843;SDS011;3967;48.702;9.326;2023-05-08T13:20:56;14.90;;;13.43;;
7843;SDS011;3967;48.702;9.326;2023-05-08T13:23:23;14.63;;;13.23;;
7843;SDS011;3967;48.702;9.326;2023-05-08T13:25:50;14.37;;;12.97;;
7843;SDS011;3967;48.702;9.326;2023-05-08T13:28:17;13.63;;;12.03;;
7843;SDS011;3967;48.702;9.326;2023-05-08T13:30:44;13.43;;;11.40;;
7843;SDS011;3967;48.702;9.326;2023-05-08T13:33:11;13.90;;;12.60;;
7843;SDS011;3967;48.702;9.326;2023-05-08T13:35:38;14.30;;;12.70;;
7843;SDS011;3967;48.702;9.326;2023-05-08T13:38:07;15.50;;;12.07;;
7843;SDS011;3967;48.702;9.326;2023-05-08T13:40:34;13.20;;;11.83;;
7843;SDS011;3967;48.702;9.326;2023-05-08T13:43:01;12.13;;;11.03;;
7843;SDS011;3967;48.702;9.326;2023-05-08T13:45:28;14.67;;;13.20;;
7843;SDS011;3967;48.702;9.326;2023-05-08T13:47:55;14.50;;;12.50;;
7843;SDS011;3967;48.702;9.326;2023-05-08T13:50:22;13.33;;;12.03;;
7843;SDS011;3967;48.702;9.326;2023-05-08T13:52:49;13.50;;;12.30;;
7843;SDS011;3967;48.702;9.326;2023-05-08T13:55:20;13.70;;;12.30;;
7843;SDS011;3967;48.702;9.326;2023-05-08T13:57:48;14.20;;;12.77;;
7843;SDS011;3967;48.702;9.326;2023-05-08T14:00:18;12.37;;;11.17;;
7843;SDS011;3967;48.702;9.326;2023-05-08T14:02:44;13.27;;;11.97;;
7843;SDS011;3967;48.702;9.326;2023-05-08T14:05:11;12.63;;;11.43;;
7843;SDS011;3967;48.702;9.326;2023-05-08T14:07:39;12.70;;;11.50;;
7843;SDS011;3967;48.702;9.326;2023-05-08T14:10:06;12.90;;;11.50;;
7843;SDS011;3967;48.702;9.326;2023-05-08T14:12:33;12.30;;;11.13;;
7843;SDS011;3967;48.702;9.326;2023-05-08T14:15:03;11.97;;;10.77;;
7843;SDS011;3967;48.702;9.326;2023-05-08T14:17:30;10.60;;;9.50;;
7843;SDS011;3967;48.702;9.326;2023-05-08T14:19:57;10.30;;;9.30;;
7843;SDS011;3967;48.702;9.326;2023-05-08T14:22:27;10.30;;;9.30;;
7843;SDS011;3967;48.702;9.326;2023-05-08T14:24:54;10.30;;;9.30;;
7843;SDS011;3967;48.702;9.326;2023-05-08T14:27:23;9.87;;;8.97;;
7843;SDS011;3967;48.702;9.326;2023-05-08T14:29:50;10.93;;;9.37;;
7843;SDS011;3967;48.702;9.326;2023-05-08T14:32:18;9.80;;;8.90;;
7843;SDS011;3967;48.702;9.326;2023-05-08T14:34:45;10.00;;;9.10;;
7843;SDS011;3967;48.702;9.326;2023-05-08T14:37:12;9.20;;;8.40;;
7843;SDS011;3967;48.702;9.326;2023-05-08T14:39:39;9.77;;;8.73;;
7843;SDS011;3967;48.702;9.326;2023-05-08T14:42:05;10.47;;;9.43;;
7843;SDS011;3967;48.702;9.326;2023-05-08T14:44:35;10.60;;;9.50;;
7843;SDS011;3967;48.702;9.326;2023-05-08T14:47:02;9.87;;;8.87;;
7843;SDS011;3967;48.702;9.326;2023-05-08T14:49:29;9.73;;;8.93;;
7843;SDS011;3967;48.702;9.326;2023-05-08T14:52:04;9.63;;;8.77;;
7843;SDS011;3967;48.702;9.326;2023-05-08T14:54:31;9.37;;;8.57;;
7843;SDS011;3967;48.702;9.326;2023-05-08T14:56:58;10.10;;;9.10;;
7843;SDS011;3967;48.702;9.326;2023-05-08T14:59:25;9.63;;;8.73;;
7843;SDS011;3967;48.702;9.326;2023-05-08T15:01:52;9.77;;;8.87;;
7843;SDS011;3967;48.702;9.326;2023-05-08T15:04:19;10.00;;;9.10;;
7843;SDS011;3967;48.702;9.326;2023-05-08T15:06:46;9.13;;;8.33;;
7843;SDS011;3967;48.702;9.326;2023-05-08T15:09:13;9.80;;;8.73;;
7843;SDS011;3967;48.702;9.326;2023-05-08T15:11:42;9.80;;;8.90;;
7843;SDS011;3967;48.702;9.326;2023-05-08T15:14:09;9.53;;;8.63;;
7843;SDS011;3967;48.702;9.326;2023-05-08T15:16:35;10.23;;;9.33;;
7843;SDS011;3967;48.702;9.326;2023-05-08T15:19:02;8.73;;;8.03;;
7843;SDS011;3967;48.702;9.326;2023-05-08T15:21:29;10.33;;;9.17;;
7843;SDS011;3967;48.702;9.326;2023-05-08T15:23:56;10.10;;;9.20;;
7843;SDS011;3967;48.702;9.326;2023-05-08T15:26:23;9.10;;;8.23;;
7843;SDS011;3967;48.702;9.326;2023-05-08T15:28:50;9.70;;;8.80;;
7843;SDS011;3967;48.702;9.326;2023-05-08T15:31:17;9.13;;;8.30;;
7843;SDS011;3967;48.702;9.326;2023-05-08T15:33:44;8.50;;;7.53;;
7843;SDS011;3967;48.702;9.326;2023-05-08T15:36:12;8.13;;;7.40;;
7843;SDS011;3967;48.702;9.326;2023-05-08T15:38:40;8.80;;;8.00;;
7843;SDS011;3967;48.702;9.326;2023-05-08T15:41:07;7.73;;;6.60;;
7843;SDS011;3967;48.702;9.326;2023-05-08T15:43:40;7.97;;;7.27;;
7843;SDS011;3967;48.702;9.326;2023-05-08T15:46:07;7.77;;;7.07;;
7843;SDS011;3967;48.702;9.326;2023-05-08T15:48:34;7.43;;;6.83;;
7843;SDS011;3967;48.702;9.326;2023-05-08T15:51:01;7.00;;;6.30;;
7843;SDS011;3967;48.702;9.326;2023-05-08T15:53:28;6.93;;;6.23;;
7843;SDS011;3967;48.702;9.326;2023-05-08T15:55:55;7.10;;;6.40;;
7843;SDS011;3967;48.702;9.326;2023-05-08T15:58:22;6.80;;;6.30;;
7843;SDS011;3967;48.702;9.326;2023-05-08T16:00:49;7.27;;;6.67;;
7843;SDS011;3967;48.702;9.326;2023-05-08T16:03:16;7.43;;;6.57;;
7843;SDS011;3967;48.702;9.326;2023-05-08T16:05:43;7.40;;;6.70;;
7843;SDS011;3967;48.702;9.326;2023-05-08T16:08:10;11.83;;;7.50;;
7843;SDS011;3967;48.702;9.326;2023-05-08T16:10:38;8.77;;;7.97;;
7843;SDS011;3967;48.702;9.326;2023-05-08T16:13:06;8.67;;;7.87;;
7843;SDS011;3967;48.702;9.326;2023-05-08T16:15:33;8.80;;;8.10;;
7843;SDS011;3967;48.702;9.326;2023-05-08T16:18:00;8.77;;;8.00;;
7843;SDS011;3967;48.702;9.326;2023-05-08T16:20:28;8.23;;;7.43;;
7843;SDS011;3967;48.702;9.326;2023-05-08T16:22:54;8.33;;;7.63;;
7843;SDS011;3967;48.702;9.326;2023-05-08T16:25:22;8.50;;;7.67;;
7843;SDS011;3967;48.702;9.326;2023-05-08T16:27:49;7.40;;;6.80;;
7843;SDS011;3967;48.702;9.326;2023-05-08T16:30:17;7.20;;;6.63;;